createdAt,value
2017-12-12T00:01:06.756Z,9.03
2017-12-12T00:02:20.765Z,9.02
2017-12-12T00:03:34.776Z,9.02
2017-12-12T00:04:48.572Z,9
2017-12-12T00:06:02.098Z,9
2017-12-12T00:07:15.781Z,9
2017-12-12T00:08:30.150Z,9.03
2017-12-12T00:09:44.604Z,9.05
2017-12-12T00:10:58.369Z,9.06
2017-12-12T00:12:17.222Z,9.07
2017-12-12T00:13:31.667Z,9.06
2017-12-12T00:14:45.882Z,9.02
2017-12-12T00:15:59.990Z,9
2017-12-12T00:17:14.121Z,8.99
2017-12-12T00:18:29.002Z,9
2017-12-12T00:19:43.289Z,9
2017-12-12T00:20:57.076Z,8.99
2017-12-12T00:22:10.924Z,8.98
2017-12-12T00:23:25.107Z,8.95
2017-12-12T00:24:43.343Z,8.93
2017-12-12T00:25:57.187Z,8.91
2017-12-12T00:27:10.696Z,8.88
2017-12-12T00:28:24.402Z,8.86
2017-12-12T00:29:38.327Z,8.86
2017-12-12T00:30:51.901Z,8.84
2017-12-12T00:32:06.324Z,8.84
2017-12-12T00:33:20.503Z,8.85
2017-12-12T00:34:34.848Z,8.86
2017-12-12T00:35:48.709Z,8.85
2017-12-12T00:37:02.804Z,8.83
2017-12-12T00:38:17.254Z,8.8
2017-12-12T00:39:31.650Z,8.79
2017-12-12T00:40:45.633Z,8.78
2017-12-12T00:41:59.824Z,8.78
2017-12-12T00:43:14.670Z,8.77
2017-12-12T00:44:29.134Z,8.77
2017-12-12T00:45:43.137Z,8.79
2017-12-12T00:46:57.824Z,8.79
2017-12-12T00:48:14.034Z,8.78
2017-12-12T00:49:28.082Z,8.76
2017-12-12T00:50:43.032Z,8.73
2017-12-12T00:51:58.130Z,8.72
2017-12-12T00:53:12.818Z,8.72
2017-12-12T00:54:29.338Z,8.7
2017-12-12T00:55:44.498Z,8.69
2017-12-12T00:57:00.664Z,8.68
2017-12-12T00:58:17.061Z,8.67
2017-12-12T00:59:34.028Z,8.66
2017-12-12T01:00:48.609Z,8.64
2017-12-12T01:02:02.804Z,8.63
2017-12-12T01:03:17.546Z,8.62
2017-12-12T01:04:31.496Z,8.62
2017-12-12T01:05:45.902Z,8.59
2017-12-12T01:06:59.464Z,8.59
2017-12-12T01:08:13.374Z,8.58
2017-12-12T01:09:28.107Z,8.58
2017-12-12T01:10:42.358Z,8.57
2017-12-12T01:11:56.385Z,8.57
2017-12-12T01:13:11.429Z,8.55
2017-12-12T01:14:26.279Z,8.54
2017-12-12T01:15:40.076Z,8.53
2017-12-12T01:16:53.768Z,8.53
2017-12-12T01:18:08.167Z,8.51
2017-12-12T01:19:21.714Z,8.52
2017-12-12T01:20:35.789Z,8.53
2017-12-12T01:21:49.392Z,8.53
2017-12-12T01:23:02.998Z,8.55
2017-12-12T01:24:16.637Z,8.59
2017-12-12T01:25:31.995Z,8.59
2017-12-12T01:26:46.130Z,8.58
2017-12-12T01:28:00.827Z,8.57
2017-12-12T01:29:14.310Z,8.57
2017-12-12T01:30:28.201Z,8.56
2017-12-12T01:31:42.948Z,8.58
2017-12-12T01:32:56.623Z,8.56
2017-12-12T01:34:10.860Z,8.55
2017-12-12T01:35:24.797Z,8.54
2017-12-12T01:36:40.690Z,8.52
2017-12-12T01:37:55.320Z,8.54
2017-12-12T01:39:09.188Z,8.55
2017-12-12T01:40:23.635Z,8.55
2017-12-12T01:41:37.312Z,8.55
2017-12-12T01:42:52.511Z,8.53
2017-12-12T01:44:06.919Z,8.53
2017-12-12T01:45:21.739Z,8.5
2017-12-12T01:46:35.649Z,8.47
2017-12-12T01:47:49.946Z,8.42
2017-12-12T01:49:04.349Z,8.37
2017-12-12T01:50:18.082Z,8.34
2017-12-12T01:51:32.446Z,8.31
2017-12-12T01:52:46.118Z,8.29
2017-12-12T01:54:00.029Z,8.27
2017-12-12T01:55:14.002Z,8.28
2017-12-12T01:56:27.787Z,8.28
2017-12-12T01:57:42.095Z,8.3
2017-12-12T01:58:55.999Z,8.3
2017-12-12T02:00:09.829Z,8.31
2017-12-12T02:01:24.310Z,8.29
2017-12-12T02:02:38.360Z,8.27
2017-12-12T02:03:52.097Z,8.23
2017-12-12T02:05:05.611Z,8.21
2017-12-12T02:06:19.982Z,8.17
2017-12-12T02:07:33.491Z,8.11
2017-12-12T02:08:47.417Z,8.06
2017-12-12T02:10:02.075Z,7.98
2017-12-12T02:11:16.720Z,7.96
2017-12-12T02:12:30.740Z,7.89
2017-12-12T02:13:44.262Z,7.83
2017-12-12T02:14:57.769Z,7.77
2017-12-12T02:16:11.664Z,7.69
2017-12-12T02:17:25.430Z,7.63
2017-12-12T02:18:39.153Z,7.58
2017-12-12T02:19:52.686Z,7.51
2017-12-12T02:21:06.666Z,7.42
2017-12-12T02:22:20.252Z,7.36
2017-12-12T02:23:40.586Z,7.26
2017-12-12T02:24:55.225Z,7.2
2017-12-12T02:26:09.169Z,7.15
2017-12-12T02:27:22.791Z,7.1
2017-12-12T02:28:36.380Z,7.02
2017-12-12T02:29:50.377Z,6.97
2017-12-12T02:31:04.277Z,6.94
2017-12-12T02:32:18.048Z,6.9
2017-12-12T02:33:32.310Z,6.86
2017-12-12T02:34:46.449Z,6.8
2017-12-12T02:35:59.978Z,6.74
2017-12-12T02:37:14.009Z,6.68
2017-12-12T02:38:28.392Z,6.62
2017-12-12T02:39:42.332Z,6.55
2017-12-12T02:40:56.176Z,6.44
2017-12-12T02:42:10.105Z,6.38
2017-12-12T02:43:23.840Z,6.36
2017-12-12T02:44:37.360Z,6.32
2017-12-12T02:45:50.908Z,6.31
2017-12-12T02:47:04.780Z,6.29
2017-12-12T02:48:18.861Z,6.27
2017-12-12T02:49:32.710Z,6.23
2017-12-12T02:50:46.231Z,6.24
2017-12-12T02:51:59.983Z,6.2
2017-12-12T02:53:13.506Z,6.15
2017-12-12T02:54:27.829Z,6.12
2017-12-12T02:55:41.852Z,6.08
2017-12-12T02:56:55.823Z,6.05
2017-12-12T02:58:09.316Z,6.02
2017-12-12T02:59:23.104Z,5.99
2017-12-12T03:00:37.002Z,5.96
2017-12-12T03:01:50.539Z,5.94
2017-12-12T03:03:04.000Z,5.93
2017-12-12T03:04:17.555Z,5.92
2017-12-12T03:05:31.889Z,5.92
2017-12-12T03:06:45.359Z,5.94
2017-12-12T03:07:59.118Z,5.96
2017-12-12T03:09:12.592Z,5.99
2017-12-12T03:10:26.257Z,5.99
2017-12-12T03:11:40.005Z,6
2017-12-12T03:12:53.700Z,6
2017-12-12T03:14:07.223Z,5.98
2017-12-12T03:15:20.783Z,5.93
2017-12-12T03:16:34.395Z,5.88
2017-12-12T03:17:48.129Z,5.8
2017-12-12T03:19:01.697Z,5.72
2017-12-12T03:20:15.252Z,5.65
2017-12-12T03:21:29.053Z,5.55
2017-12-12T03:22:43.233Z,5.52
2017-12-12T03:23:57.573Z,5.43
2017-12-12T03:25:11.516Z,5.34
2017-12-12T03:26:25.174Z,5.27
2017-12-12T03:27:38.834Z,5.22
2017-12-12T03:28:53.100Z,5.19
2017-12-12T03:30:06.850Z,5.16
2017-12-12T03:31:20.395Z,5.15
2017-12-12T03:32:34.095Z,5.14
2017-12-12T03:33:48.598Z,5.08
2017-12-12T03:35:02.065Z,5.08
2017-12-12T03:36:16.023Z,5.06
2017-12-12T03:37:29.691Z,5.06
2017-12-12T03:38:43.955Z,5.07
2017-12-12T03:39:58.210Z,5.07
2017-12-12T03:41:11.697Z,5.04
2017-12-12T03:42:25.172Z,5.02
2017-12-12T03:43:38.621Z,5.04
2017-12-12T03:44:52.437Z,5.05
2017-12-12T03:46:05.928Z,5.07
2017-12-12T03:47:19.404Z,5.07
2017-12-12T03:48:33.292Z,5.07
2017-12-12T03:49:47.116Z,5.07
2017-12-12T03:51:01.106Z,5.08
2017-12-12T03:52:14.641Z,5.08
2017-12-12T03:53:28.294Z,5.06
2017-12-12T03:54:42.165Z,5.05
2017-12-12T03:55:56.018Z,5.05
2017-12-12T03:57:09.944Z,5.08
2017-12-12T03:58:23.416Z,5.12
2017-12-12T03:59:36.913Z,5.11
2017-12-12T04:00:50.665Z,5.11
2017-12-12T04:02:04.219Z,5.11
2017-12-12T04:03:19.047Z,5.09
2017-12-12T04:04:32.848Z,5.06
2017-12-12T04:05:46.594Z,5.05
2017-12-12T04:07:00.266Z,5.05
2017-12-12T04:08:13.768Z,5.04
2017-12-12T04:09:42.277Z,5.06
2017-12-12T04:10:55.766Z,5.05
2017-12-12T04:12:09.647Z,5.05
2017-12-12T04:13:23.188Z,5.04
2017-12-12T04:14:36.732Z,5
2017-12-12T04:15:50.954Z,5
2017-12-12T04:17:04.459Z,4.98
2017-12-12T04:18:17.937Z,4.99
2017-12-12T04:19:31.684Z,5
2017-12-12T04:20:45.134Z,5
2017-12-12T04:21:58.752Z,5.01
2017-12-12T04:23:12.525Z,4.99
2017-12-12T04:24:26.229Z,5.02
2017-12-12T04:25:39.752Z,5.02
2017-12-12T04:26:53.761Z,5.04
2017-12-12T04:28:07.454Z,5.06
2017-12-12T04:29:21.095Z,5.04
2017-12-12T04:30:35.672Z,5
2017-12-12T04:31:49.548Z,4.99
2017-12-12T04:33:03.450Z,5
2017-12-12T04:34:17.341Z,5.11
2017-12-12T04:35:31.491Z,5.24
2017-12-12T04:36:45.867Z,5.38
2017-12-12T04:37:59.488Z,5.52
2017-12-12T04:39:13.652Z,5.64
2017-12-12T04:40:27.705Z,5.72
2017-12-12T04:41:42.237Z,5.78
2017-12-12T04:42:55.927Z,5.82
2017-12-12T04:44:09.405Z,5.86
2017-12-12T04:45:22.872Z,5.88
2017-12-12T04:46:36.900Z,5.87
2017-12-12T04:47:50.471Z,5.91
2017-12-12T04:49:04.091Z,5.99
2017-12-12T04:50:17.780Z,6.07
2017-12-12T04:51:31.309Z,6.11
2017-12-12T04:52:45.318Z,6.19
2017-12-12T04:53:58.848Z,6.24
2017-12-12T04:55:12.886Z,6.3
2017-12-12T04:56:26.675Z,6.33
2017-12-12T04:57:40.585Z,6.37
2017-12-12T05:01:12.508Z,6.47
2017-12-12T05:02:26.556Z,6.5
2017-12-12T05:03:40.153Z,6.56
2017-12-12T05:04:53.601Z,6.59
2017-12-12T05:06:07.069Z,6.59
2017-12-12T05:07:20.991Z,6.53
2017-12-12T05:08:34.506Z,6.42
2017-12-12T05:09:48.012Z,6.31
2017-12-12T05:11:01.452Z,6.22
2017-12-12T05:12:15.152Z,6.11
2017-12-12T05:13:29.222Z,6
2017-12-12T05:14:42.958Z,5.91
2017-12-12T05:15:57.046Z,5.82
2017-12-12T05:17:10.632Z,5.74
2017-12-12T05:18:24.220Z,5.68
2017-12-12T05:19:37.928Z,5.67
2017-12-12T05:20:51.663Z,5.63
2017-12-12T05:22:05.390Z,5.59
2017-12-12T05:23:19.094Z,5.57
2017-12-12T05:24:33.000Z,5.56
2017-12-12T05:25:47.392Z,5.54
2017-12-12T05:27:02.275Z,5.5
2017-12-12T05:28:15.727Z,5.47
2017-12-12T05:29:30.321Z,5.46
2017-12-12T05:30:43.784Z,5.47
2017-12-12T05:31:57.446Z,5.48
2017-12-12T05:33:11.243Z,5.49
2017-12-12T05:34:24.860Z,5.51
2017-12-12T05:35:38.455Z,5.52
2017-12-12T05:36:51.931Z,5.54
2017-12-12T05:38:05.697Z,5.52
2017-12-12T05:39:19.706Z,5.5
2017-12-12T05:40:34.183Z,5.49
2017-12-12T05:41:48.230Z,5.46
2017-12-12T05:43:01.692Z,5.45
2017-12-12T05:44:21.507Z,5.47
2017-12-12T05:45:35.103Z,5.5
2017-12-12T05:46:48.593Z,5.53
2017-12-12T05:48:02.399Z,5.54
2017-12-12T05:49:16.326Z,5.53
2017-12-12T05:50:29.828Z,5.56
2017-12-12T05:51:43.276Z,5.57
2017-12-12T05:52:57.132Z,5.58
2017-12-12T05:54:11.275Z,5.56
2017-12-12T05:55:24.872Z,5.57
2017-12-12T05:56:38.921Z,5.58
2017-12-12T05:57:52.628Z,5.62
2017-12-12T05:59:06.849Z,5.65
2017-12-12T06:00:20.402Z,5.63
2017-12-12T06:01:34.269Z,5.64
2017-12-12T06:02:48.011Z,5.66
2017-12-12T06:04:01.879Z,5.69
2017-12-12T06:05:16.710Z,5.73
2017-12-12T06:06:32.050Z,5.73
2017-12-12T06:07:46.481Z,5.73
2017-12-12T06:09:00.102Z,5.75
2017-12-12T06:10:14.628Z,5.76
2017-12-12T06:11:28.794Z,5.76
2017-12-12T06:12:43.329Z,5.74
2017-12-12T06:14:35.101Z,5.73
2017-12-12T06:15:49.334Z,5.66
2017-12-12T06:17:03.780Z,5.65
2017-12-12T06:18:17.703Z,5.64
2017-12-12T06:19:31.241Z,5.66
2017-12-12T06:20:45.330Z,5.67
2017-12-12T06:21:59.435Z,5.69
2017-12-12T06:23:12.985Z,5.72
2017-12-12T06:24:27.748Z,5.7
2017-12-12T06:25:42.013Z,5.72
2017-12-12T06:26:56.413Z,5.76
2017-12-12T06:28:10.042Z,5.76
2017-12-12T06:29:23.962Z,5.75
2017-12-12T06:30:38.640Z,5.72
2017-12-12T06:31:53.458Z,5.74
2017-12-12T06:33:07.215Z,5.76
2017-12-12T06:34:22.521Z,5.77
2017-12-12T06:35:37.572Z,5.77
2017-12-12T06:36:51.361Z,5.8
2017-12-12T06:38:05.247Z,5.77
2017-12-12T06:39:19.210Z,5.77
2017-12-12T06:40:33.943Z,5.79
2017-12-12T06:41:50.729Z,5.78
2017-12-12T06:43:08.020Z,5.81
2017-12-12T06:44:23.977Z,5.84
2017-12-12T06:45:39.739Z,5.86
2017-12-12T06:46:54.609Z,5.85
2017-12-12T06:48:09.170Z,5.86
2017-12-12T06:49:23.623Z,5.87
2017-12-12T06:50:39.068Z,5.87
2017-12-12T06:51:53.014Z,5.88
2017-12-12T06:53:08.019Z,5.89
2017-12-12T06:54:23.364Z,5.9
2017-12-12T06:55:37.937Z,5.87
2017-12-12T06:56:53.506Z,5.87
2017-12-12T06:58:06.957Z,5.85
2017-12-12T06:59:21.891Z,5.84
2017-12-12T07:00:35.475Z,5.85
2017-12-12T07:01:49.939Z,5.83
2017-12-12T07:03:05.634Z,5.84
2017-12-12T07:04:20.056Z,5.83
2017-12-12T07:05:33.739Z,5.84
2017-12-12T07:06:48.007Z,5.87
2017-12-12T07:08:01.474Z,5.9
2017-12-12T07:09:15.775Z,5.92
2017-12-12T07:10:30.836Z,5.91
2017-12-12T07:11:45.859Z,5.89
2017-12-12T07:13:01.143Z,5.87
2017-12-12T07:14:16.210Z,5.89
2017-12-12T07:15:30.114Z,5.89
2017-12-12T07:16:44.077Z,5.89
2017-12-12T07:17:58.623Z,5.91
2017-12-12T07:19:12.283Z,5.93
2017-12-12T07:20:25.745Z,5.96
2017-12-12T07:21:39.278Z,5.94
2017-12-12T07:22:52.773Z,5.96
2017-12-12T07:24:06.868Z,5.97
2017-12-12T07:25:20.316Z,5.99
2017-12-12T07:26:34.060Z,5.99
2017-12-12T07:27:48.148Z,5.99
2017-12-12T07:29:02.348Z,6
2017-12-12T07:30:16.830Z,6
2017-12-12T07:31:31.033Z,6
2017-12-12T07:32:45.948Z,5.99
2017-12-12T07:34:10.870Z,6.01
2017-12-12T07:35:32.437Z,6.02
2017-12-12T07:36:47.398Z,6.01
2017-12-12T07:38:01.790Z,6.02
2017-12-12T07:39:15.815Z,6.03
2017-12-12T07:40:30.345Z,6.04
2017-12-12T07:41:44.965Z,6.07
2017-12-12T07:42:58.824Z,6.06
2017-12-12T07:44:12.523Z,6.07
2017-12-12T07:45:26.430Z,6.04
2017-12-12T07:46:41.004Z,6.05
2017-12-12T07:47:55.128Z,6.05
2017-12-12T07:49:08.586Z,6.05
2017-12-12T07:50:22.873Z,6.03
2017-12-12T07:51:38.790Z,6.06
2017-12-12T07:53:01.507Z,6.04
2017-12-12T07:54:18.093Z,6.04
2017-12-12T07:55:33.352Z,6.02
2017-12-12T07:56:51.697Z,6.02
2017-12-12T07:58:10.664Z,6.02
2017-12-12T07:59:26.483Z,6.01
2017-12-12T08:00:45.199Z,6.03
2017-12-12T08:02:03.844Z,6.04
2017-12-12T08:03:19.404Z,6.03
2017-12-12T08:04:37.950Z,6.03
2017-12-12T08:05:53.454Z,6.02
2017-12-12T08:07:09.097Z,6.02
2017-12-12T08:08:25.321Z,6.01
2017-12-12T08:09:39.321Z,6.02
2017-12-12T08:10:53.223Z,6.01
2017-12-12T08:12:07.626Z,6.04
2017-12-12T08:13:21.677Z,6.05
2017-12-12T08:14:35.465Z,6.07
2017-12-12T08:15:49.239Z,6.1
2017-12-12T08:17:04.483Z,6.08
2017-12-12T08:18:19.003Z,6.06
2017-12-12T08:19:33.132Z,6.04
2017-12-12T08:20:47.174Z,6.01
2017-12-12T08:22:00.710Z,5.97
2017-12-12T08:23:14.523Z,5.96
2017-12-12T08:24:28.587Z,5.92
2017-12-12T08:25:43.614Z,5.88
2017-12-12T08:26:57.221Z,5.83
2017-12-12T08:28:11.055Z,5.83
2017-12-12T08:29:24.805Z,5.83
2017-12-12T08:30:38.589Z,5.82
2017-12-12T08:31:52.063Z,5.86
2017-12-12T08:33:05.857Z,5.87
2017-12-12T08:34:19.870Z,5.88
2017-12-12T08:35:34.471Z,5.9
2017-12-12T08:36:48.408Z,5.9
2017-12-12T08:38:02.013Z,5.89
2017-12-12T08:39:16.041Z,5.94
2017-12-12T08:40:29.801Z,5.95
2017-12-12T08:41:43.937Z,5.94
2017-12-12T08:42:57.619Z,5.93
2017-12-12T08:44:11.576Z,5.95
2017-12-12T08:45:25.399Z,5.98
2017-12-12T08:46:39.672Z,5.99
2017-12-12T08:47:53.254Z,5.98
2017-12-12T08:49:07.758Z,5.97
2017-12-12T08:50:21.854Z,6
2017-12-12T08:51:35.771Z,6.16
2017-12-12T08:52:50.830Z,6.24
2017-12-12T08:54:04.392Z,6.22
2017-12-12T08:55:18.345Z,6.17
2017-12-12T08:56:32.351Z,6.13
2017-12-12T08:57:46.915Z,6.16
2017-12-12T08:59:01.592Z,6.23
2017-12-12T09:00:15.830Z,6.25
2017-12-12T09:01:29.917Z,6.3
2017-12-12T09:02:46.475Z,6.38
2017-12-12T09:04:02.884Z,6.48
2017-12-12T09:05:16.725Z,6.5
2017-12-12T09:06:31.271Z,6.51
2017-12-12T09:07:45.122Z,6.49
2017-12-12T09:08:59.558Z,6.48
2017-12-12T09:10:14.067Z,6.49
2017-12-12T09:11:28.998Z,6.51
2017-12-12T09:12:42.729Z,6.56
2017-12-12T09:13:56.478Z,6.61
2017-12-12T09:15:10.097Z,6.65
2017-12-12T09:16:24.647Z,6.68
2017-12-12T09:17:40.146Z,6.67
2017-12-12T09:18:54.118Z,6.66
2017-12-12T09:20:08.440Z,6.62
2017-12-12T09:21:25.111Z,6.6
2017-12-12T09:22:38.670Z,6.6
2017-12-12T09:23:52.713Z,6.6
2017-12-12T09:25:06.746Z,6.64
2017-12-12T09:26:20.426Z,6.66
2017-12-12T09:27:34.532Z,6.69
2017-12-12T09:28:48.226Z,6.67
2017-12-12T09:30:02.070Z,6.64
2017-12-12T09:31:15.629Z,6.64
2017-12-12T09:32:29.366Z,6.61
2017-12-12T09:33:43.977Z,6.6
2017-12-12T09:34:57.773Z,6.61
2017-12-12T09:36:11.542Z,6.59
2017-12-12T09:37:25.524Z,6.57
2017-12-12T09:38:39.914Z,6.52
2017-12-12T09:39:53.820Z,6.5
2017-12-12T09:41:07.385Z,6.49
2017-12-12T09:42:22.132Z,6.5
2017-12-12T09:43:36.177Z,6.52
2017-12-12T09:44:49.925Z,6.53
2017-12-12T09:46:03.408Z,6.52
2017-12-12T09:47:17.229Z,6.55
2017-12-12T09:48:30.723Z,6.56
2017-12-12T09:49:44.510Z,6.56
2017-12-12T09:50:58.254Z,6.55
2017-12-12T09:52:13.220Z,6.56
2017-12-12T09:53:27.073Z,6.57
2017-12-12T09:54:41.153Z,6.56
2017-12-12T09:56:14.295Z,6.56
2017-12-12T09:57:30.472Z,6.56
2017-12-12T09:58:45.109Z,6.55
2017-12-12T09:59:59.867Z,6.56
2017-12-12T10:01:16.930Z,6.55
2017-12-12T10:02:37.425Z,6.59
2017-12-12T10:03:54.078Z,6.6
2017-12-12T10:05:08.382Z,6.6
2017-12-12T10:06:23.062Z,6.58
2017-12-12T10:07:37.898Z,6.58
2017-12-12T10:08:52.069Z,6.59
2017-12-12T10:10:06.814Z,6.58
2017-12-12T10:11:20.762Z,6.59
2017-12-12T10:12:35.425Z,6.64
2017-12-12T10:14:08.850Z,6.67
2017-12-12T10:17:14.579Z,6.71
2017-12-12T10:18:35.467Z,6.74
2017-12-12T10:19:49.209Z,6.72
2017-12-12T10:21:03.778Z,6.67
2017-12-12T10:22:17.250Z,6.64
2017-12-12T10:23:31.042Z,6.63
2017-12-12T10:24:44.906Z,6.63
2017-12-12T10:26:01.492Z,6.62
2017-12-12T10:27:21.175Z,6.62
2017-12-12T10:28:38.218Z,6.58
2017-12-12T10:29:56.690Z,6.6
2017-12-12T10:31:18.558Z,6.62
2017-12-12T10:32:52.113Z,6.65
2017-12-12T10:34:13.829Z,6.69
2017-12-12T10:35:27.608Z,6.7
2017-12-12T10:36:41.579Z,6.73
2017-12-12T10:37:55.169Z,6.78
2017-12-12T10:39:09.800Z,6.82
2017-12-12T10:40:23.881Z,6.84
2017-12-12T10:41:41.747Z,6.9
2017-12-12T10:43:16.202Z,6.92
2017-12-12T10:44:30.845Z,6.94
2017-12-12T10:45:47.210Z,6.96
2017-12-12T10:47:04.022Z,6.99
2017-12-12T10:48:18.561Z,7.02
2017-12-12T10:49:32.373Z,7.03
2017-12-12T10:50:46.196Z,7.01
2017-12-12T10:52:00.819Z,7.02
2017-12-12T10:54:44.526Z,7.09
2017-12-12T10:56:00.574Z,7.16
2017-12-12T10:57:17.714Z,7.19
2017-12-12T10:58:32.438Z,7.22
2017-12-12T10:59:46.294Z,7.24
2017-12-12T11:01:00.172Z,7.26
2017-12-12T11:02:14.314Z,7.28
2017-12-12T11:03:27.801Z,7.31
2017-12-12T11:04:56.185Z,7.34
2017-12-12T11:06:09.718Z,7.38
2017-12-12T11:07:23.454Z,7.4
2017-12-12T11:08:37.374Z,7.46
2017-12-12T11:09:52.382Z,7.51
2017-12-12T11:11:07.840Z,7.57
2017-12-12T11:12:22.023Z,7.59
2017-12-12T11:13:36.116Z,7.65
2017-12-12T11:14:49.675Z,7.7
2017-12-12T11:16:03.302Z,7.7
2017-12-12T11:17:16.885Z,7.69
2017-12-12T11:18:30.973Z,7.74
2017-12-12T11:19:45.278Z,7.77
2017-12-12T11:20:58.750Z,7.81
2017-12-12T11:22:12.297Z,7.84
2017-12-12T11:23:26.074Z,7.89
2017-12-12T11:24:39.561Z,7.91
2017-12-12T11:25:53.151Z,7.93
2017-12-12T11:27:07.183Z,7.97
2017-12-12T11:28:20.945Z,7.99
2017-12-12T11:29:35.006Z,8.01
2017-12-12T11:30:49.816Z,8.03
2017-12-12T11:32:03.958Z,8.02
2017-12-12T11:33:17.848Z,8.03
2017-12-12T11:34:32.238Z,8.02
2017-12-12T11:35:46.508Z,8.02
2017-12-12T11:37:00.025Z,8
2017-12-12T11:38:13.954Z,7.99
2017-12-12T11:39:27.634Z,7.98
2017-12-12T11:40:42.521Z,7.99
2017-12-12T11:42:02.821Z,8.03
2017-12-12T11:43:18.362Z,8.09
2017-12-12T11:44:34.858Z,8.15
2017-12-12T11:45:53.058Z,8.19
2017-12-12T11:47:07.780Z,8.28
2017-12-12T11:48:22.093Z,8.37
2017-12-12T11:49:35.688Z,8.44
2017-12-12T11:50:49.367Z,8.45
2017-12-12T11:52:03.614Z,8.49
2017-12-12T11:53:18.668Z,8.51
2017-12-12T11:54:34.125Z,8.52
2017-12-12T11:55:48.140Z,8.52
2017-12-12T11:57:02.821Z,8.48
2017-12-12T11:58:17.898Z,8.44
2017-12-12T11:59:32.698Z,8.39
2017-12-12T12:00:47.243Z,8.35
2017-12-12T12:02:01.230Z,8.3
2017-12-12T12:03:14.986Z,8.28
2017-12-12T12:04:30.481Z,8.23
2017-12-12T12:05:49.889Z,8.19
2017-12-12T12:07:21.389Z,8.09
2017-12-12T12:08:38.496Z,8.07
2017-12-12T12:09:54.620Z,8.04
2017-12-12T12:11:09.849Z,8
2017-12-12T12:12:24.570Z,8
2017-12-12T12:13:39.012Z,7.95
2017-12-12T12:14:53.628Z,7.93
2017-12-12T12:16:08.157Z,7.92
2017-12-12T12:17:22.007Z,7.93
2017-12-12T12:18:37.669Z,7.91
2017-12-12T12:19:52.825Z,7.85
2017-12-12T12:21:07.607Z,7.84
2017-12-12T12:22:22.751Z,7.81
2017-12-12T12:23:39.681Z,7.77
2017-12-12T12:24:55.493Z,7.68
2017-12-12T12:26:19.036Z,7.64
2017-12-12T12:27:42.141Z,7.6
2017-12-12T12:29:17.961Z,7.57
2017-12-12T12:31:14.439Z,7.53
2017-12-12T12:34:44.840Z,7.5
2017-12-12T12:35:59.455Z,7.48
2017-12-12T12:37:34.294Z,7.48
2017-12-12T12:38:54.564Z,7.48
2017-12-12T12:40:15.594Z,7.48
2017-12-12T12:41:29.564Z,7.5
2017-12-12T12:42:43.631Z,7.53
2017-12-12T12:43:57.828Z,7.53
2017-12-12T12:45:13.866Z,7.57
2017-12-12T12:46:32.167Z,7.55
2017-12-12T12:47:46.873Z,7.51
2017-12-12T12:49:02.359Z,7.48
2017-12-12T12:50:16.563Z,7.48
2017-12-12T12:51:30.983Z,7.42
2017-12-12T12:52:44.523Z,7.43
2017-12-12T12:53:58.557Z,7.41
2017-12-12T12:55:13.305Z,7.46
2017-12-12T12:56:27.934Z,7.46
2017-12-12T12:57:44.993Z,7.47
2017-12-12T12:58:58.941Z,7.48
2017-12-12T13:00:13.861Z,7.49
2017-12-12T13:01:29.402Z,7.48
2017-12-12T13:02:44.533Z,7.47
2017-12-12T13:04:00.931Z,7.48
2017-12-12T13:05:15.555Z,7.47
2017-12-12T13:06:30.098Z,7.48
2017-12-12T13:07:45.809Z,7.53
2017-12-12T13:09:00.695Z,7.56
2017-12-12T13:10:21.495Z,7.59
2017-12-12T13:11:56.800Z,7.58
2017-12-12T13:13:18.640Z,7.59
2017-12-12T13:16:25.227Z,7.62
2017-12-12T13:18:58.682Z,7.68
2017-12-12T13:20:14.262Z,7.69
2017-12-12T13:21:30.680Z,7.73
2017-12-12T13:22:46.015Z,7.71
2017-12-12T13:24:00.024Z,7.72
2017-12-12T13:25:16.950Z,7.73
2017-12-12T13:26:39.629Z,7.76
2017-12-12T13:27:56.934Z,7.74
2017-12-12T13:29:13.954Z,7.7
2017-12-12T13:30:28.606Z,7.67
2017-12-12T13:31:42.884Z,7.65
2017-12-12T13:32:58.451Z,7.63
2017-12-12T13:34:12.894Z,7.61
2017-12-12T13:35:26.548Z,7.6
2017-12-12T13:36:40.108Z,7.57
2017-12-12T13:37:54.202Z,7.59
2017-12-12T13:39:14.620Z,7.58
2017-12-12T13:43:29.010Z,7.57
2017-12-12T13:47:20.091Z,7.59
2017-12-12T13:48:35.813Z,7.65
2017-12-12T13:49:52.570Z,7.65
2017-12-12T13:51:09.969Z,7.68
2017-12-12T13:52:25.462Z,7.7
2017-12-12T13:53:42.852Z,7.73
2017-12-12T13:54:58.585Z,7.75
2017-12-12T13:56:13.535Z,7.75
2017-12-12T13:57:29.779Z,7.76
2017-12-12T13:58:43.984Z,7.76
2017-12-12T13:59:58.234Z,7.77
2017-12-12T14:01:12.904Z,7.74
2017-12-12T14:02:27.460Z,7.65
2017-12-12T14:03:41.762Z,7.58
2017-12-12T14:04:56.198Z,7.53
2017-12-12T14:06:10.109Z,7.5
2017-12-12T14:07:24.090Z,7.46
2017-12-12T14:08:37.898Z,7.45
2017-12-12T14:09:51.440Z,7.42
2017-12-12T14:11:05.246Z,7.39
2017-12-12T14:12:19.089Z,7.36
2017-12-12T14:13:32.950Z,7.34
2017-12-12T14:14:47.510Z,7.35
2017-12-12T14:16:02.152Z,7.36
2017-12-12T14:17:15.677Z,7.36
2017-12-12T14:18:29.817Z,7.34
2017-12-12T14:19:44.275Z,7.33
2017-12-12T14:20:58.644Z,7.29
2017-12-12T14:22:18.840Z,7.29
2017-12-12T14:23:36.248Z,7.27
2017-12-12T14:24:51.130Z,7.31
2017-12-12T14:26:06.405Z,7.34
2017-12-12T14:27:21.620Z,7.35
2017-12-12T14:28:36.641Z,7.33
2017-12-12T14:29:52.177Z,7.3
2017-12-12T14:31:09.235Z,7.28
2017-12-12T14:32:25.939Z,7.27
2017-12-12T14:33:43.750Z,7.25
2017-12-12T14:34:59.505Z,7.23
2017-12-12T14:36:16.383Z,7.25
2017-12-12T14:37:34.112Z,7.25
2017-12-12T14:38:49.156Z,7.24
2017-12-12T14:40:04.576Z,7.23
2017-12-12T14:41:23.022Z,7.21
2017-12-12T14:42:36.678Z,7.18
2017-12-12T14:43:50.275Z,7.15
2017-12-12T14:45:04.324Z,7.1
2017-12-12T14:46:22.977Z,7.05
2017-12-12T14:48:04.725Z,7.01
2017-12-12T14:49:19.609Z,7
2017-12-12T14:50:34.197Z,6.98
2017-12-12T14:51:48.621Z,6.98
2017-12-12T14:53:09.849Z,6.97
2017-12-12T14:54:55.140Z,6.96
2017-12-12T14:58:23.291Z,6.99
2017-12-12T14:59:46.671Z,6.97
2017-12-12T15:01:01.641Z,6.95
2017-12-12T15:02:17.951Z,6.94
2017-12-12T15:03:45.057Z,6.92
2017-12-12T15:05:00.440Z,6.93
2017-12-12T15:06:17.268Z,6.93
2017-12-12T15:07:31.139Z,6.93
2017-12-12T15:08:44.886Z,6.92
2017-12-12T15:09:58.951Z,6.92
2017-12-12T15:11:12.839Z,6.92
2017-12-12T15:12:26.698Z,6.9
2017-12-12T15:13:41.153Z,6.91
2017-12-12T15:14:54.686Z,6.89
2017-12-12T15:16:08.586Z,6.92
2017-12-12T15:17:22.412Z,6.93
2017-12-12T15:18:37.726Z,6.93
2017-12-12T15:19:52.464Z,6.91
2017-12-12T15:21:06.115Z,6.9
2017-12-12T15:22:21.081Z,6.89
2017-12-12T15:23:36.673Z,6.89
2017-12-12T15:24:50.972Z,6.88
2017-12-12T15:26:05.571Z,6.9
2017-12-12T15:27:20.159Z,6.92
2017-12-12T15:28:33.701Z,6.93
2017-12-12T15:29:47.802Z,6.94
2017-12-12T15:31:01.530Z,6.92
2017-12-12T15:32:15.285Z,6.91
2017-12-12T15:33:29.601Z,6.9
2017-12-12T15:34:43.246Z,6.88
2017-12-12T15:35:57.811Z,6.87
2017-12-12T15:37:14.566Z,6.87
2017-12-12T15:38:40.089Z,6.86
2017-12-12T15:39:59.750Z,6.88
2017-12-12T15:41:17.226Z,6.84
2017-12-12T15:42:39.996Z,6.83
2017-12-12T15:44:03.516Z,6.81
2017-12-12T15:45:25.015Z,6.79
2017-12-12T15:48:32.193Z,6.77
2017-12-12T15:52:01.257Z,6.75
2017-12-12T15:53:16.323Z,6.75
2017-12-12T15:54:34.617Z,6.73
2017-12-12T15:55:50.701Z,6.74
2017-12-12T15:57:07.499Z,6.71
2017-12-12T15:58:22.820Z,6.7
2017-12-12T15:59:39.642Z,6.7
2017-12-12T16:00:57.045Z,6.66
2017-12-12T16:02:17.419Z,6.66
2017-12-12T16:03:52.606Z,6.67
2017-12-12T16:05:13.088Z,6.63
2017-12-12T16:06:36.203Z,6.6
2017-12-12T16:09:13.162Z,6.58
2017-12-12T16:14:01.230Z,6.6
2017-12-12T16:20:22.958Z,6.68
2017-12-12T16:24:37.362Z,6.64
2017-12-12T16:27:01.310Z,6.6
2017-12-12T16:28:15.904Z,6.56
2017-12-12T16:29:31.498Z,6.55
2017-12-12T16:30:46.099Z,6.51
2017-12-12T16:32:01.084Z,6.47
2017-12-12T16:33:30.136Z,6.46
2017-12-12T16:35:11.630Z,6.43
2017-12-12T16:36:32.160Z,6.38
2017-12-12T16:37:49.939Z,6.31
2017-12-12T16:39:05.031Z,6.28
2017-12-12T16:40:19.304Z,6.26
2017-12-12T16:41:34.757Z,6.22
2017-12-12T16:42:48.516Z,6.18
2017-12-12T16:44:02.873Z,6.13
2017-12-12T16:45:17.163Z,6.13
2017-12-12T16:46:31.335Z,6.08
2017-12-12T16:47:45.051Z,6.05
2017-12-12T16:48:59.729Z,6.02
2017-12-12T16:50:13.373Z,6.01
2017-12-12T16:51:27.331Z,5.95
2017-12-12T16:52:41.194Z,5.91
2017-12-12T16:53:55.636Z,5.92
2017-12-12T16:55:11.237Z,5.9
2017-12-12T16:56:26.009Z,5.88
2017-12-12T16:57:41.157Z,5.86
2017-12-12T16:58:55.221Z,5.83
2017-12-12T17:00:19.995Z,5.79
2017-12-12T17:01:34.641Z,5.74
2017-12-12T17:02:50.284Z,5.69
2017-12-12T17:04:06.594Z,5.65
2017-12-12T17:05:22.629Z,5.58
2017-12-12T17:06:37.486Z,5.56
2017-12-12T17:07:51.869Z,5.55
2017-12-12T17:09:06.496Z,5.54
2017-12-12T17:10:23.058Z,5.52
2017-12-12T17:11:46.377Z,5.5
2017-12-12T17:13:00.692Z,5.49
2017-12-12T17:14:15.491Z,5.48
2017-12-12T17:15:29.595Z,5.48
2017-12-12T17:16:44.298Z,5.49
2017-12-12T17:17:59.488Z,5.51
2017-12-12T17:19:14.412Z,5.54
2017-12-12T17:20:29.190Z,5.56
2017-12-12T17:21:43.339Z,5.6
2017-12-12T17:22:58.005Z,5.61
2017-12-12T17:24:11.754Z,5.65